Tiplersville, Mississippi
Current Conditions -  °F | °C
As of 8:35 PM on Sunday 23 Nov 2014 (Local Time) from KCRX Reporting Station
Overcast Overcast  
Wind Chill: 63°   Ceiling: 2800
Heat Index: 63°   Visibility: 10mi
Dew Point: 57°   Wind: 12mph
Humidity: 82%   Direction: 200°SSW
Pressure: 29.51"   Gusts: 17mph
Location:  34.9°N, 88.91°W
Report Text: KCRX 240235Z AUTO 20010G15KT 10SM SCT017 BKN028 OVC036 17/14 A2951 RMK AO2
Loading
Personal Weather Stations






























Interactive Weather Map New forecast layout! Learn more

10-Day Weather Forecast

Advertisements
Track Severe Weather on mobile